Gytsjerk, Netherlands
Current Conditions -  °F | °C
As of 6:29 AM on Monday 22 Dec 2014 (Local Time) from EHLW Reporting Station
Overcast Overcast  
Wind Chill: 52°   Ceiling: 900
Heat Index: 52°   Visibility: 6mi
Dew Point: 48°   Wind: 23mph
Humidity: 88%   Direction: 240°WSW
Pressure: 29.83"   Gusts: 35mph
Location:  53.24°N, 5.9°E
Report Text: EHLW 220529Z AUTO 24020G30KT 9999 BKN009 OVC011 11/09 Q1010 GRN
Loading
Personal Weather Stations






























Interactive Weather Map New forecast layout! Learn more

10-Day Weather Forecast

Advertisements
Track Severe Weather on mobile